Time;durP1;ratioP1;P1;durP2;ratioP2;P2;SDS_P1;SDS_P2;PMS_P1;PMS_P2;Temp;Humidity;BMP_temperature;BMP_pressure;BME280_temperature;BME280_humidity;BME280_pressure;Samples;Min_cycle;Max_cycle;Signal;HPM_P1;HPM_P2
2022/05/19 00:01:06;;;;;;;7.22;4.35;;;;;;;;;;5039661;28;20029;-51
2022/05/19 00:03:36;;;;;;;7.50;4.30;;;;;;;;;;5033605;28;20033;-51
2022/05/19 00:06:03;;;;;;;5.28;3.97;;;;;;;;;;5042940;28;20045;-52
2022/05/19 00:08:29;;;;;;;8.10;4.32;;;;;;;;;;5050443;28;20028;-54
2022/05/19 00:10:56;;;;;;;8.23;4.00;;;;;;;;;;5039614;28;20677;-53
2022/05/19 00:13:23;;;;;;;8.10;4.30;;;;;;;;;;5035443;28;20036;-50
2022/05/19 00:15:49;;;;;;;8.32;4.40;;;;;;;;;;5039111;28;20029;-53
2022/05/19 00:18:15;;;;;;;5.28;3.97;;;;;;;;;;5041385;28;20037;-50
2022/05/19 00:20:41;;;;;;;6.00;4.18;;;;;;;;;;5041902;28;20029;-54
2022/05/19 00:23:07;;;;;;;7.85;4.43;;;;;;;;;;5039049;28;20473;-53
2022/05/19 00:25:33;;;;;;;5.88;4.00;;;;;;;;;;5043816;28;20029;-51
2022/05/19 00:27:59;;;;;;;7.57;4.53;;;;;;;;;;5039840;28;20033;-54
2022/05/19 00:30:26;;;;;;;9.18;4.40;;;;;;;;;;5044221;28;20406;-52
2022/05/19 00:32:52;;;;;;;6.95;4.57;;;;;;;;;;5045601;28;20104;-51
2022/05/19 00:35:18;;;;;;;6.82;4.10;;;;;;;;;;5045242;28;20048;-50
2022/05/19 00:37:44;;;;;;;5.93;4.38;;;;;;;;;;5050160;28;20029;-51
2022/05/19 00:40:10;;;;;;;7.25;4.80;;;;;;;;;;5047388;28;20389;-52
2022/05/19 00:42:45;;;;;;;5.35;4.55;;;;;;;;;;5045367;28;20044;-50
2022/05/19 00:45:13;;;;;;;9.05;4.90;;;;;;;;;;5050383;28;20365;-51
2022/05/19 00:47:47;;;;;;;6.00;4.53;;;;;;;;;;5048396;28;20581;-51
2022/05/19 00:50:19;;;;;;;7.50;4.47;;;;;;;;;;5049724;28;20021;-50
2022/05/19 00:52:46;;;;;;;8.60;4.68;;;;;;;;;;5048011;28;20044;-53
2022/05/19 00:55:15;;;;;;;7.20;4.70;;;;;;;;;;5049041;28;20387;-50
2022/05/19 00:57:44;;;;;;;8.10;5.07;;;;;;;;;;5036838;28;20350;-51
2022/05/19 01:00:12;;;;;;;6.95;5.15;;;;;;;;;;5034059;28;20039;-52
2022/05/19 01:02:40;;;;;;;8.50;5.70;;;;;;;;;;5037182;28;20382;-50
2022/05/19 01:05:08;;;;;;;5.28;4.63;;;;;;;;;;5038728;28;20028;-51
2022/05/19 01:07:47;;;;;;;7.15;4.97;;;;;;;;;;5041821;28;20033;-54
2022/05/19 01:10:13;;;;;;;7.22;5.22;;;;;;;;;;5049828;28;20060;-50
2022/05/19 01:12:40;;;;;;;7.93;4.93;;;;;;;;;;5051514;28;20075;-53
2022/05/19 01:15:06;;;;;;;7.25;5.28;;;;;;;;;;5047917;28;20022;-51
2022/05/19 01:17:33;;;;;;;8.45;4.78;;;;;;;;;;5047089;28;20162;-51
2022/05/19 01:20:00;;;;;;;10.68;4.95;;;;;;;;;;5049487;28;20037;-54
2022/05/19 01:22:30;;;;;;;6.57;4.90;;;;;;;;;;5037431;28;20412;-52
2022/05/19 01:25:02;;;;;;;8.60;4.70;;;;;;;;;;5032692;28;20067;-51
2022/05/19 01:27:28;;;;;;;6.85;4.80;;;;;;;;;;5043510;28;20076;-51
2022/05/19 01:29:54;;;;;;;7.65;5.00;;;;;;;;;;5036985;28;20113;-53
2022/05/19 01:32:25;;;;;;;7.47;4.95;;;;;;;;;;5042614;28;20553;-51
2022/05/19 01:34:51;;;;;;;9.32;4.93;;;;;;;;;;5041495;28;20029;-51
2022/05/19 01:37:17;;;;;;;8.40;5.18;;;;;;;;;;5038218;28;20439;-50
2022/05/19 01:39:46;;;;;;;8.05;5.03;;;;;;;;;;5050229;28;20029;-53
2022/05/19 01:42:35;;;;;;;6.45;4.55;;;;;;;;;;5049166;28;20033;-50
2022/05/19 01:45:20;;;;;;;10.02;5.68;;;;;;;;;;5043836;28;20070;-51
2022/05/19 01:47:57;;;;;;;6.05;4.63;;;;;;;;;;5033898;28;20037;-50
2022/05/19 01:50:26;;;;;;;8.88;5.22;;;;;;;;;;5044399;28;20039;-51
2022/05/19 01:53:03;;;;;;;6.82;5.20;;;;;;;;;;5035006;28;20455;-51
2022/05/19 01:55:37;;;;;;;6.07;4.60;;;;;;;;;;5032243;28;20038;-51
2022/05/19 01:58:09;;;;;;;8.18;5.20;;;;;;;;;;5038719;28;20036;-51
2022/05/19 02:00:35;;;;;;;7.88;5.22;;;;;;;;;;5036791;28;20072;-52
2022/05/19 02:03:04;;;;;;;7.85;5.65;;;;;;;;;;5060493;28;20072;-51
2022/05/19 02:05:49;;;;;;;8.02;5.07;;;;;;;;;;5040016;28;20049;-52
2022/05/19 02:08:21;;;;;;;12.82;5.35;;;;;;;;;;5031656;28;20033;-50
2022/05/19 02:10:49;;;;;;;5.88;4.63;;;;;;;;;;5035806;28;20033;-50
2022/05/19 02:13:16;;;;;;;10.48;4.70;;;;;;;;;;5050185;28;20380;-53
2022/05/19 02:15:45;;;;;;;6.22;4.90;;;;;;;;;;5034268;28;20036;-51
2022/05/19 02:18:11;;;;;;;6.35;4.85;;;;;;;;;;5050023;28;20500;-53
2022/05/19 02:20:37;;;;;;;11.60;5.40;;;;;;;;;;5043933;28;20024;-51
2022/05/19 02:23:04;;;;;;;10.48;5.75;;;;;;;;;;5049523;28;20025;-51
2022/05/19 02:25:31;;;;;;;9.35;5.22;;;;;;;;;;5036496;28;20055;-51
2022/05/19 02:28:02;;;;;;;8.48;5.03;;;;;;;;;;5040573;28;20498;-51
2022/05/19 02:30:30;;;;;;;7.95;5.78;;;;;;;;;;5043340;28;20021;-51
2022/05/19 02:32:56;;;;;;;8.55;5.35;;;;;;;;;;5041966;28;20021;-50
2022/05/19 02:35:22;;;;;;;7.63;4.82;;;;;;;;;;5048687;28;20526;-52
2022/05/19 02:37:48;;;;;;;6.75;5.03;;;;;;;;;;5032947;28;20033;-53
2022/05/19 02:40:15;;;;;;;7.20;5.43;;;;;;;;;;5045621;28;20035;-52
2022/05/19 02:42:42;;;;;;;5.97;4.88;;;;;;;;;;5050070;28;20033;-51
2022/05/19 02:45:08;;;;;;;6.50;5.03;;;;;;;;;;5043444;28;20033;-52
2022/05/19 02:47:34;;;;;;;9.75;5.57;;;;;;;;;;5050603;28;20041;-50
2022/05/19 02:50:01;;;;;;;7.95;5.68;;;;;;;;;;5046385;28;20120;-51
2022/05/19 02:52:27;;;;;;;7.50;5.35;;;;;;;;;;5043836;28;20136;-51
2022/05/19 02:54:53;;;;;;;10.77;5.57;;;;;;;;;;5044553;28;20079;-53
2022/05/19 02:57:19;;;;;;;9.55;4.97;;;;;;;;;;5036029;28;20512;-51
2022/05/19 02:59:45;;;;;;;7.00;4.78;;;;;;;;;;5046138;28;20511;-52
2022/05/19 03:02:11;;;;;;;8.02;5.38;;;;;;;;;;5043017;28;20551;-51
2022/05/19 03:04:37;;;;;;;10.68;5.88;;;;;;;;;;5035703;28;20476;-51
2022/05/19 03:07:03;;;;;;;7.78;5.20;;;;;;;;;;5051023;28;20029;-53
2022/05/19 03:09:29;;;;;;;8.18;5.45;;;;;;;;;;5048063;28;20029;-52
2022/05/19 03:11:55;;;;;;;6.35;5.22;;;;;;;;;;5049908;28;20428;-53
2022/05/19 03:14:21;;;;;;;7.38;5.32;;;;;;;;;;5031320;28;20120;-52
2022/05/19 03:16:47;;;;;;;11.45;6.25;;;;;;;;;;5040682;28;20445;-50
2022/05/19 03:19:14;;;;;;;7.40;5.47;;;;;;;;;;5043115;28;20347;-50
2022/05/19 03:21:42;;;;;;;7.07;4.88;;;;;;;;;;5039644;28;20031;-50
2022/05/19 03:24:08;;;;;;;6.88;5.00;;;;;;;;;;5049879;28;20457;-53
2022/05/19 03:26:34;;;;;;;6.93;5.90;;;;;;;;;;5044390;28;20041;-52
2022/05/19 03:29:00;;;;;;;6.25;5.13;;;;;;;;;;5035589;28;20025;-50
2022/05/19 03:31:26;;;;;;;9.35;5.43;;;;;;;;;;5043033;28;20108;-50
2022/05/19 03:33:52;;;;;;;7.88;5.72;;;;;;;;;;5049227;28;20033;-50
2022/05/19 03:36:18;;;;;;;7.13;5.05;;;;;;;;;;5040732;28;20393;-51
2022/05/19 03:38:44;;;;;;;8.13;5.35;;;;;;;;;;5036464;28;20036;-52
2022/05/19 03:41:10;;;;;;;8.85;5.20;;;;;;;;;;5042502;28;20021;-52
2022/05/19 03:43:36;;;;;;;9.10;6.10;;;;;;;;;;5036924;28;20036;-51
2022/05/19 03:46:03;;;;;;;8.82;5.43;;;;;;;;;;5041844;28;20025;-52
2022/05/19 03:48:33;;;;;;;9.82;5.95;;;;;;;;;;5049629;28;20508;-52
2022/05/19 03:50:59;;;;;;;6.47;5.32;;;;;;;;;;5033029;28;20026;-53
2022/05/19 03:53:25;;;;;;;9.50;5.40;;;;;;;;;;5040363;28;20552;-53
2022/05/19 03:55:53;;;;;;;8.77;5.60;;;;;;;;;;5031011;28;20459;-51
2022/05/19 03:58:19;;;;;;;8.38;5.22;;;;;;;;;;5042943;28;20043;-53
2022/05/19 04:00:45;;;;;;;7.32;5.32;;;;;;;;;;5044380;28;20032;-51
2022/05/19 04:03:11;;;;;;;7.75;5.13;;;;;;;;;;5044531;28;20033;-50
2022/05/19 04:05:37;;;;;;;7.55;5.65;;;;;;;;;;5043469;28;20027;-54
2022/05/19 04:08:03;;;;;;;6.70;5.35;;;;;;;;;;5060397;28;20071;-52
2022/05/19 04:10:30;;;;;;;7.40;5.00;;;;;;;;;;5056486;28;20033;-50
2022/05/19 04:12:56;;;;;;;6.72;5.13;;;;;;;;;;5040263;28;20442;-50
2022/05/19 04:15:22;;;;;;;7.32;5.38;;;;;;;;;;5045606;28;20507;-52
2022/05/19 04:17:48;;;;;;;9.68;4.80;;;;;;;;;;5037078;28;20035;-51
2022/05/19 04:20:14;;;;;;;9.02;5.47;;;;;;;;;;5049084;28;20507;-50
2022/05/19 04:22:40;;;;;;;7.05;5.05;;;;;;;;;;5054151;28;20021;-51
2022/05/19 04:25:07;;;;;;;9.68;5.28;;;;;;;;;;5054099;28;20036;-52
2022/05/19 04:27:33;;;;;;;8.25;5.57;;;;;;;;;;5051119;28;20033;-50
2022/05/19 04:30:00;;;;;;;7.88;5.45;;;;;;;;;;5051825;28;20423;-50
2022/05/19 04:32:26;;;;;;;7.88;5.60;;;;;;;;;;5053977;28;20037;-54
2022/05/19 04:34:52;;;;;;;8.88;5.35;;;;;;;;;;5039642;28;20026;-50
2022/05/19 04:37:18;;;;;;;9.85;5.07;;;;;;;;;;5052984;28;20526;-53
2022/05/19 04:39:44;;;;;;;8.02;5.10;;;;;;;;;;5052413;28;20040;-50
2022/05/19 04:42:11;;;;;;;10.05;4.55;;;;;;;;;;5052859;28;20036;-51
2022/05/19 04:44:38;;;;;;;8.23;5.40;;;;;;;;;;5046357;28;21027;-51
2022/05/19 04:47:04;;;;;;;5.95;4.30;;;;;;;;;;5041470;28;20057;-53
2022/05/19 04:49:30;;;;;;;7.90;4.25;;;;;;;;;;5039724;28;20060;-55
2022/05/19 04:51:56;;;;;;;10.55;4.50;;;;;;;;;;5045989;28;20108;-50
2022/05/19 04:54:23;;;;;;;7.40;4.68;;;;;;;;;;5050034;28;20107;-51
2022/05/19 04:56:49;;;;;;;7.03;4.75;;;;;;;;;;5038294;28;20116;-53
2022/05/19 04:59:15;;;;;;;6.22;4.90;;;;;;;;;;5051898;28;20438;-53
2022/05/19 05:01:42;;;;;;;5.72;4.40;;;;;;;;;;5046657;28;20029;-51
2022/05/19 05:04:08;;;;;;;6.38;4.50;;;;;;;;;;5044441;28;20392;-50
2022/05/19 05:06:34;;;;;;;6.10;4.15;;;;;;;;;;5042203;28;20509;-50
2022/05/19 05:09:00;;;;;;;5.43;4.00;;;;;;;;;;5041807;28;20059;-50
2022/05/19 05:11:26;;;;;;;7.47;4.75;;;;;;;;;;5039360;28;20059;-52
2022/05/19 05:13:52;;;;;;;7.85;4.68;;;;;;;;;;5052422;28;20473;-51
2022/05/19 05:16:18;;;;;;;5.68;3.70;;;;;;;;;;5040971;28;20044;-54
2022/05/19 05:18:44;;;;;;;6.93;4.78;;;;;;;;;;5049841;28;20476;-52
2022/05/19 05:21:13;;;;;;;7.28;4.00;;;;;;;;;;5039677;28;20025;-54
2022/05/19 05:23:40;;;;;;;6.60;4.28;;;;;;;;;;5049170;28;20455;-53
2022/05/19 05:26:06;;;;;;;6.68;4.18;;;;;;;;;;5053571;28;20513;-50
2022/05/19 05:28:32;;;;;;;8.10;4.15;;;;;;;;;;5051234;28;20135;-53
2022/05/19 05:30:59;;;;;;;5.45;4.15;;;;;;;;;;5040047;28;20028;-51
2022/05/19 05:33:24;;;;;;;6.68;3.55;;;;;;;;;;5052110;28;20481;-50
2022/05/19 05:35:50;;;;;;;10.77;4.40;;;;;;;;;;5050845;28;20032;-51
2022/05/19 05:38:17;;;;;;;5.50;3.55;;;;;;;;;;5052740;28;20479;-51
2022/05/19 05:40:43;;;;;;;7.75;4.20;;;;;;;;;;5042086;28;20033;-51
2022/05/19 05:43:10;;;;;;;5.70;4.35;;;;;;;;;;5052549;28;20120;-51
2022/05/19 05:45:37;;;;;;;8.55;3.90;;;;;;;;;;5050449;28;20476;-50
2022/05/19 05:48:03;;;;;;;9.68;4.20;;;;;;;;;;5050844;28;20109;-51
2022/05/19 05:50:29;;;;;;;5.63;3.92;;;;;;;;;;5040094;28;20033;-54
2022/05/19 05:52:55;;;;;;;4.63;3.95;;;;;;;;;;5051448;28;20574;-54
2022/05/19 05:55:21;;;;;;;6.43;3.85;;;;;;;;;;5050310;28;20137;-53
2022/05/19 05:57:47;;;;;;;7.18;4.15;;;;;;;;;;5052331;28;20032;-52
2022/05/19 06:00:14;;;;;;;6.40;3.95;;;;;;;;;;5037291;28;20035;-53
2022/05/19 06:02:40;;;;;;;8.55;4.28;;;;;;;;;;5049368;28;20060;-51
2022/05/19 06:05:06;;;;;;;10.20;4.75;;;;;;;;;;5052256;28;20395;-53
2022/05/19 06:07:32;;;;;;;7.30;4.32;;;;;;;;;;5042850;28;20033;-51
2022/05/19 06:09:59;;;;;;;10.73;4.57;;;;;;;;;;5041419;28;20400;-52
2022/05/19 06:12:25;;;;;;;6.30;4.57;;;;;;;;;;5052166;28;20031;-51
2022/05/19 06:14:53;;;;;;;6.75;4.20;;;;;;;;;;5050302;28;20033;-51
2022/05/19 06:17:19;;;;;;;8.88;4.05;;;;;;;;;;5041364;28;20033;-51
2022/05/19 06:19:45;;;;;;;6.03;4.10;;;;;;;;;;5044412;28;20040;-50
2022/05/19 06:22:11;;;;;;;6.00;4.35;;;;;;;;;;5043124;28;20103;-53
2022/05/19 06:24:37;;;;;;;7.35;3.78;;;;;;;;;;5053968;28;20071;-51
2022/05/19 06:27:03;;;;;;;6.57;4.15;;;;;;;;;;5041840;28;20404;-53
2022/05/19 06:29:29;;;;;;;9.32;3.83;;;;;;;;;;5043076;28;20036;-51
2022/05/19 06:31:55;;;;;;;6.43;3.70;;;;;;;;;;5045124;28;20037;-52
2022/05/19 06:34:21;;;;;;;5.32;3.28;;;;;;;;;;5051741;28;20070;-52
2022/05/19 06:36:48;;;;;;;5.50;3.75;;;;;;;;;;5050521;28;20453;-54
2022/05/19 06:39:16;;;;;;;5.22;3.30;;;;;;;;;;5049371;28;20067;-53
2022/05/19 06:42:00;;;;;;;6.50;4.00;;;;;;;;;;5045637;28;20064;-52
2022/05/19 06:44:28;;;;;;;5.18;3.28;;;;;;;;;;5034258;28;20017;-53
2022/05/19 06:46:54;;;;;;;3.92;3.13;;;;;;;;;;5044040;28;20036;-51
2022/05/19 06:49:20;;;;;;;3.88;3.08;;;;;;;;;;5051158;28;20021;-54
2022/05/19 06:51:46;;;;;;;6.00;3.47;;;;;;;;;;5045024;28;20025;-52
2022/05/19 06:54:12;;;;;;;4.40;3.20;;;;;;;;;;5047873;28;20394;-54
2022/05/19 06:56:38;;;;;;;7.22;3.90;;;;;;;;;;5050875;28;20052;-52
2022/05/19 06:59:04;;;;;;;4.60;3.10;;;;;;;;;;5047451;28;20043;-52
2022/05/19 07:01:30;;;;;;;4.72;2.92;;;;;;;;;;5049427;28;20107;-51
2022/05/19 07:03:56;;;;;;;6.28;2.85;;;;;;;;;;5050667;28;20021;-54
2022/05/19 07:06:22;;;;;;;4.10;2.90;;;;;;;;;;5044283;28;20032;-55
2022/05/19 07:08:48;;;;;;;9.52;2.70;;;;;;;;;;5046486;28;20396;-55
2022/05/19 07:11:26;;;;;;;7.35;3.35;;;;;;;;;;5050544;28;20095;-55
2022/05/19 07:13:53;;;;;;;6.45;3.22;;;;;;;;;;5039894;28;20481;-55
2022/05/19 07:16:19;;;;;;;3.55;2.88;;;;;;;;;;5048708;28;20159;-55
2022/05/19 07:18:45;;;;;;;4.28;3.00;;;;;;;;;;5035591;28;20017;-54
2022/05/19 07:21:12;;;;;;;3.70;2.42;;;;;;;;;;5049748;28;20431;-54
2022/05/19 07:23:39;;;;;;;6.13;2.55;;;;;;;;;;5046443;28;20469;-55
2022/05/19 07:26:06;;;;;;;5.43;2.85;;;;;;;;;;5050270;28;20017;-55
2022/05/19 07:28:31;;;;;;;4.90;2.65;;;;;;;;;;5048275;28;20037;-52
2022/05/19 07:30:58;;;;;;;7.60;2.97;;;;;;;;;;5050486;28;20075;-55
2022/05/19 07:33:28;;;;;;;4.68;2.92;;;;;;;;;;5047966;28;20044;-54
2022/05/19 07:35:55;;;;;;;3.40;2.33;;;;;;;;;;5050575;28;20025;-54
2022/05/19 07:38:21;;;;;;;5.93;3.47;;;;;;;;;;5050334;28;20087;-55
2022/05/19 07:40:49;;;;;;;5.97;2.53;;;;;;;;;;5048947;28;20028;-54
2022/05/19 07:45:59;;;;;;;8.32;2.42;;;;;;;;;;5050203;28;20044;-54
2022/05/19 07:48:25;;;;;;;2.83;2.47;;;;;;;;;;5050445;28;20400;-52
2022/05/19 07:50:51;;;;;;;7.35;2.97;;;;;;;;;;5050645;28;20051;-52
2022/05/19 07:53:17;;;;;;;5.05;2.40;;;;;;;;;;5053482;28;20040;-54
2022/05/19 07:55:43;;;;;;;3.30;2.40;;;;;;;;;;5052429;28;20408;-51
2022/05/19 07:58:09;;;;;;;4.03;2.30;;;;;;;;;;5054027;28;20032;-54
2022/05/19 08:00:35;;;;;;;5.63;2.47;;;;;;;;;;5046920;28;20548;-55
2022/05/19 08:03:01;;;;;;;3.08;2.15;;;;;;;;;;5053856;28;20079;-54
2022/05/19 08:05:27;;;;;;;3.83;2.47;;;;;;;;;;5054436;28;20057;-53
2022/05/19 08:07:53;;;;;;;5.45;2.72;;;;;;;;;;5045964;28;20365;-53
2022/05/19 08:10:25;;;;;;;3.20;2.40;;;;;;;;;;5053280;28;20025;-55
2022/05/19 08:15:41;;;;;;;4.20;2.58;;;;;;;;;;5043692;28;20064;-55
2022/05/19 08:18:12;;;;;;;2.95;2.33;;;;;;;;;;5041989;28;20539;-54
2022/05/19 08:20:39;;;;;;;3.13;2.25;;;;;;;;;;5042928;28;20032;-54
2022/05/19 08:23:06;;;;;;;3.47;2.42;;;;;;;;;;5051853;28;20179;-54
2022/05/19 08:25:33;;;;;;;8.07;2.80;;;;;;;;;;5049104;28;20036;-55
2022/05/19 08:27:59;;;;;;;3.65;2.13;;;;;;;;;;5046521;28;20037;-55
2022/05/19 08:30:26;;;;;;;4.35;2.40;;;;;;;;;;5036087;28;20477;-53
2022/05/19 08:32:52;;;;;;;2.30;2.10;;;;;;;;;;5048204;28;20029;-54
2022/05/19 08:35:18;;;;;;;3.78;1.92;;;;;;;;;;5049232;28;20043;-55
2022/05/19 08:37:44;;;;;;;3.58;2.33;;;;;;;;;;5054823;28;20919;-54
2022/05/19 08:40:11;;;;;;;3.20;2.28;;;;;;;;;;5044567;28;20029;-54
2022/05/19 08:42:39;;;;;;;3.13;2.22;;;;;;;;;;5050875;28;20179;-53
2022/05/19 08:45:08;;;;;;;3.60;2.22;;;;;;;;;;5044085;28;20481;-53
2022/05/19 08:47:34;;;;;;;3.53;2.10;;;;;;;;;;5041213;28;20040;-54
2022/05/19 08:50:03;;;;;;;3.33;1.88;;;;;;;;;;5053345;28;20558;-54
2022/05/19 08:52:37;;;;;;;3.63;2.38;;;;;;;;;;5051145;28;20432;-55
2022/05/19 08:55:03;;;;;;;7.38;2.00;;;;;;;;;;5043594;28;20092;-55
2022/05/19 08:57:36;;;;;;;5.43;2.10;;;;;;;;;;5053262;28;20088;-56
2022/05/19 09:00:02;;;;;;;5.00;2.22;;;;;;;;;;5041831;28;20035;-55
2022/05/19 09:02:32;;;;;;;5.55;2.50;;;;;;;;;;5045390;28;20451;-55
2022/05/19 09:05:18;;;;;;;2.67;1.80;;;;;;;;;;5052853;28;20655;-55
2022/05/19 09:07:59;;;;;;;2.55;1.80;;;;;;;;;;5038839;28;20399;-55
2022/05/19 09:10:43;;;;;;;3.92;2.20;;;;;;;;;;5050993;28;20104;-55
2022/05/19 09:13:09;;;;;;;;;;;;;;;;;;5053121;28;20102;-54
2022/05/19 09:15:36;;;;;;;3.67;1.85;;;;;;;;;;5053087;28;19905;-54
2022/05/19 09:18:02;;;;;;;5.95;2.33;;;;;;;;;;5053111;28;20555;-55
2022/05/19 09:20:46;;;;;;;3.33;1.98;;;;;;;;;;5052790;28;20086;-53
2022/05/19 09:23:12;;;;;;;4.15;2.75;;;;;;;;;;5052715;28;20067;-55
2022/05/19 09:25:43;;;;;;;3.30;2.17;;;;;;;;;;5048910;28;20013;-55
2022/05/19 09:28:10;;;;;;;10.27;2.33;;;;;;;;;;5041708;28;20936;-55
2022/05/19 09:30:56;;;;;;;5.40;2.20;;;;;;;;;;5044591;28;20438;-55
2022/05/19 09:33:29;;;;;;;4.30;2.55;;;;;;;;;;5049835;28;20127;-55
2022/05/19 09:35:56;;;;;;;4.47;2.50;;;;;;;;;;5052789;28;20029;-54
2022/05/19 09:38:27;;;;;;;5.25;2.30;;;;;;;;;;5052436;28;20108;-55
2022/05/19 09:40:56;;;;;;;2.80;1.73;;;;;;;;;;5046476;28;20515;-55
2022/05/19 09:43:27;;;;;;;4.43;2.38;;;;;;;;;;5051774;28;20067;-55
2022/05/19 09:46:04;;;;;;;2.10;1.90;;;;;;;;;;5046961;28;20029;-54
2022/05/19 09:48:35;;;;;;;2.45;1.92;;;;;;;;;;5052458;28;20033;-55
2022/05/19 09:51:03;;;;;;;6.65;2.22;;;;;;;;;;5049074;28;20036;-55
2022/05/19 09:53:30;;;;;;;7.35;2.03;;;;;;;;;;5052051;28;20124;-55
2022/05/19 09:55:57;;;;;;;2.00;1.80;;;;;;;;;;5050336;28;20052;-56
2022/05/19 09:58:25;;;;;;;4.38;2.22;;;;;;;;;;5045799;28;20025;-55
2022/05/19 10:00:58;;;;;;;3.22;1.85;;;;;;;;;;5046397;28;20124;-55
2022/05/19 10:03:26;;;;;;;3.67;2.13;;;;;;;;;;5049406;28;20029;-53
2022/05/19 10:05:57;;;;;;;2.78;1.80;;;;;;;;;;5036336;28;20468;-53
2022/05/19 10:08:35;;;;;;;4.88;2.13;;;;;;;;;;5042269;28;20112;-54
2022/05/19 10:11:03;;;;;;;2.63;1.80;;;;;;;;;;5044916;28;20507;-54
2022/05/19 10:13:49;;;;;;;2.42;1.90;;;;;;;;;;5055458;28;20272;-53
2022/05/19 10:16:15;;;;;;;3.28;1.45;;;;;;;;;;5048168;28;20117;-55
2022/05/19 10:18:49;;;;;;;3.15;1.83;;;;;;;;;;5051188;28;20067;-52
2022/05/19 10:21:34;;;;;;;5.38;1.80;;;;;;;;;;5049599;28;20444;-54
2022/05/19 10:24:06;;;;;;;12.52;3.15;;;;;;;;;;5048683;28;20041;-56
2022/05/19 10:31:02;;;;;;;4.40;2.25;;;;;;;;;;5051269;28;20048;-54
2022/05/19 10:32:38;;;;;;;;;;;;;;;;;;5049065;28;20451;-55
2022/05/19 10:35:26;;;;;;;4.57;2.05;;;;;;;;;;5046917;28;19963;-55
2022/05/19 10:38:01;;;;;;;2.67;1.70;;;;;;;;;;5042935;28;20033;-55
2022/05/19 10:40:47;;;;;;;3.35;1.90;;;;;;;;;;5037651;28;20060;-54
2022/05/19 10:43:21;;;;;;;2.42;1.65;;;;;;;;;;5051199;28;20029;-56
2022/05/19 10:45:48;;;;;;;4.57;2.00;;;;;;;;;;5039909;28;20245;-56
2022/05/19 10:48:33;;;;;;;4.75;2.10;;;;;;;;;;5047547;28;20029;-55
2022/05/19 10:51:02;;;;;;;5.90;2.00;;;;;;;;;;5051057;28;20045;-55
2022/05/19 10:53:34;;;;;;;3.25;1.90;;;;;;;;;;5044361;28;20048;-56
2022/05/19 10:56:11;;;;;;;3.03;1.60;;;;;;;;;;5037768;28;20037;-55
2022/05/19 10:58:43;;;;;;;4.72;2.00;;;;;;;;;;5040203;28;20029;-56
2022/05/19 11:01:17;;;;;;;2.20;1.60;;;;;;;;;;5037370;28;20029;-54
2022/05/19 11:03:51;;;;;;;1.40;1.27;;;;;;;;;;5046724;28;20507;-55
2022/05/19 11:06:34;;;;;;;5.30;2.10;;;;;;;;;;5040282;28;20032;-55
2022/05/19 11:09:06;;;;;;;3.28;1.80;;;;;;;;;;5041258;28;20186;-55
2022/05/19 11:11:50;;;;;;;3.20;1.60;;;;;;;;;;5049223;28;20508;-54
2022/05/19 11:14:44;;;;;;;2.17;1.40;;;;;;;;;;5037974;28;20025;-56
2022/05/19 11:17:16;;;;;;;2.50;1.70;;;;;;;;;;5050332;28;20574;-54
2022/05/19 11:19:47;;;;;;;2.23;1.60;;;;;;;;;;5050429;28;20040;-55
2022/05/19 11:22:17;;;;;;;4.28;1.60;;;;;;;;;;5050838;28;20029;-56
2022/05/19 11:27:34;;;;;;;2.47;1.50;;;;;;;;;;5048437;28;20558;-56
2022/05/19 11:30:03;;;;;;;5.38;1.30;;;;;;;;;;5044606;28;20037;-55
2022/05/19 11:32:32;;;;;;;3.00;1.48;;;;;;;;;;5050836;28;20025;-55
2022/05/19 11:35:12;;;;;;;3.67;1.60;;;;;;;;;;5045522;28;20033;-55
2022/05/19 11:37:45;;;;;;;3.53;1.77;;;;;;;;;;5048056;28;20495;-55
2022/05/19 11:40:11;;;;;;;;;;;;;;;;;;5042231;28;20022;-54
2022/05/19 11:43:00;;;;;;;2.58;1.30;;;;;;;;;;5043656;28;20300;-56
2022/05/19 11:45:33;;;;;;;3.72;1.70;;;;;;;;;;5041357;28;20102;-56
2022/05/19 11:56:25;;;;;;;4.40;1.83;;;;;;;;;;5036280;28;20103;-55
2022/05/19 11:58:51;;;;;;;3.63;1.17;;;;;;;;;;5039894;28;20033;-56
2022/05/19 12:01:23;;;;;;;3.10;1.65;;;;;;;;;;5044979;28;20511;-55
2022/05/19 12:03:56;;;;;;;2.35;1.20;;;;;;;;;;5046273;28;20033;-53
2022/05/19 12:06:44;;;;;;;2.30;1.40;;;;;;;;;;5047056;28;20025;-54
2022/05/19 12:09:22;;;;;;;2.58;1.30;;;;;;;;;;5047532;28;20037;-56
2022/05/19 12:11:50;;;;;;;2.22;1.00;;;;;;;;;;5049351;28;20060;-55
2022/05/19 12:14:16;;;;;;;2.35;1.13;;;;;;;;;;5046243;28;20032;-56
2022/05/19 12:16:52;;;;;;;3.92;1.42;;;;;;;;;;5049622;28;20464;-56
2022/05/19 12:19:33;;;;;;;1.85;1.17;;;;;;;;;;5043541;28;20535;-55
2022/05/19 12:22:00;;;;;;;1.98;1.10;;;;;;;;;;5046603;28;20025;-57
2022/05/19 12:24:30;;;;;;;3.70;1.20;;;;;;;;;;5049672;28;20498;-56
2022/05/19 12:27:10;;;;;;;2.13;1.30;;;;;;;;;;5041957;28;20033;-56
2022/05/19 12:29:39;;;;;;;3.33;1.40;;;;;;;;;;5048474;28;20028;-55
2022/05/19 12:32:16;;;;;;;2.13;1.25;;;;;;;;;;5043045;28;20500;-56
2022/05/19 12:34:44;;;;;;;1.95;1.10;;;;;;;;;;5044746;28;20040;-54
2022/05/19 12:37:10;;;;;;;4.78;1.45;;;;;;;;;;5048662;28;20619;-52
2022/05/19 12:39:47;;;;;;;2.47;1.35;;;;;;;;;;5049338;28;20025;-55
2022/05/19 12:42:17;;;;;;;4.32;1.40;;;;;;;;;;5045886;28;20415;-56
2022/05/19 12:44:46;;;;;;;2.80;1.40;;;;;;;;;;5051265;28;20376;-56
2022/05/19 12:47:22;;;;;;;1.23;1.00;;;;;;;;;;5052426;28;20098;-57
2022/05/19 12:50:08;;;;;;;1.58;0.85;;;;;;;;;;5050520;28;20041;-57
2022/05/19 12:52:53;;;;;;;1.92;0.90;;;;;;;;;;5046416;28;20404;-56
2022/05/19 12:55:25;;;;;;;5.70;1.55;;;;;;;;;;5047266;28;20033;-56
2022/05/19 12:57:53;;;;;;;1.63;0.93;;;;;;;;;;5052665;28;20025;-53
2022/05/19 13:00:20;;;;;;;1.30;1.10;;;;;;;;;;5047239;28;20025;-53
2022/05/19 13:03:05;;;;;;;3.78;1.25;;;;;;;;;;5047278;28;20496;-56
2022/05/19 13:05:46;;;;;;;3.78;1.27;;;;;;;;;;5050393;28;20083;-54
2022/05/19 13:08:13;;;;;;;2.08;1.33;;;;;;;;;;5044041;28;20053;-55
2022/05/19 13:10:50;;;;;;;2.38;1.10;;;;;;;;;;5051548;28;20045;-54
2022/05/19 13:13:25;;;;;;;4.63;1.30;;;;;;;;;;5052590;28;20021;-52
2022/05/19 13:15:55;;;;;;;2.53;1.10;;;;;;;;;;5046295;28;20025;-53
2022/05/19 13:18:36;;;;;;;1.85;1.20;;;;;;;;;;5036737;28;20153;-54
2022/05/19 13:21:05;;;;;;;3.10;1.15;;;;;;;;;;5049112;28;20164;-54
2022/05/19 13:23:31;;;;;;;1.40;0.90;;;;;;;;;;5051390;28;20421;-53
2022/05/19 13:26:23;;;;;;;1.20;0.73;;;;;;;;;;5050909;28;20039;-55
2022/05/19 13:31:50;;;;;;;1.23;0.87;;;;;;;;;;5048195;28;20083;-54
2022/05/19 13:34:17;;;;;;;3.22;1.20;;;;;;;;;;5046302;28;20024;-55
2022/05/19 13:36:50;;;;;;;1.67;1.00;;;;;;;;;;5044510;28;20062;-54
2022/05/19 13:39:19;;;;;;;4.07;1.05;;;;;;;;;;5049529;28;20029;-54
2022/05/19 13:41:46;;;;;;;1.88;1.10;;;;;;;;;;5051740;28;20036;-55
2022/05/19 13:44:12;;;;;;;1.92;1.10;;;;;;;;;;5048063;28;20699;-55
2022/05/19 13:46:39;;;;;;;2.33;0.75;;;;;;;;;;5051430;28;20029;-55
2022/05/19 13:49:07;;;;;;;2.72;1.13;;;;;;;;;;5044660;28;20075;-54
2022/05/19 13:51:41;;;;;;;4.78;0.80;;;;;;;;;;5048348;28;20025;-55
2022/05/19 13:54:08;;;;;;;3.67;1.00;;;;;;;;;;5051553;28;20042;-55
2022/05/19 13:56:36;;;;;;;3.05;0.80;;;;;;;;;;5049429;28;20028;-55
2022/05/19 13:59:03;;;;;;;1.80;0.70;;;;;;;;;;5050200;28;20037;-53
2022/05/19 14:01:34;;;;;;;1.80;0.93;;;;;;;;;;5041540;28;20121;-55
2022/05/19 14:04:02;;;;;;;2.97;1.02;;;;;;;;;;5046190;28;20048;-55
2022/05/19 14:06:30;;;;;;;1.08;0.52;;;;;;;;;;5044324;28;20037;-53
2022/05/19 14:08:56;;;;;;;1.27;0.85;;;;;;;;;;5048182;28;20029;-54
2022/05/19 14:11:22;;;;;;;2.47;0.85;;;;;;;;;;5045501;28;20021;-54
2022/05/19 14:13:53;;;;;;;0.80;0.80;;;;;;;;;;5048093;28;20052;-55
2022/05/19 14:16:19;;;;;;;1.67;1.00;;;;;;;;;;5042521;28;20091;-55
2022/05/19 14:19:01;;;;;;;2.40;0.82;;;;;;;;;;5040357;28;20041;-54
2022/05/19 14:21:29;;;;;;;1.98;0.90;;;;;;;;;;5047998;28;20108;-55
2022/05/19 14:23:59;;;;;;;0.90;0.57;;;;;;;;;;5047206;28;20024;-55
2022/05/19 14:26:28;;;;;;;2.25;0.80;;;;;;;;;;5049915;28;20035;-55
2022/05/19 14:28:56;;;;;;;1.65;0.60;;;;;;;;;;5045862;28;20059;-55
2022/05/19 14:31:29;;;;;;;2.10;0.88;;;;;;;;;;5036195;28;20036;-56
2022/05/19 14:34:04;;;;;;;1.13;0.63;;;;;;;;;;5040565;28;20072;-53
2022/05/19 14:36:44;;;;;;;1.00;0.70;;;;;;;;;;5036733;28;20033;-55
2022/05/19 14:39:20;;;;;;;1.50;0.85;;;;;;;;;;5049129;28;20523;-54
2022/05/19 14:44:40;;;;;;;1.80;0.82;;;;;;;;;;5046584;28;20040;-54
2022/05/19 14:47:14;;;;;;;2.00;1.00;;;;;;;;;;5050761;28;20092;-54
2022/05/19 14:49:42;;;;;;;2.85;0.90;;;;;;;;;;5040657;28;20044;-53
2022/05/19 14:52:08;;;;;;;4.53;1.02;;;;;;;;;;5040968;28;20473;-53
2022/05/19 14:54:39;;;;;;;3.67;1.10;;;;;;;;;;5042184;28;20145;-54
2022/05/19 14:57:09;;;;;;;3.17;0.88;;;;;;;;;;5042417;28;20079;-55
2022/05/19 14:59:46;;;;;;;1.70;0.88;;;;;;;;;;5042267;28;20056;-54
2022/05/19 15:02:12;;;;;;;1.50;1.00;;;;;;;;;;5041849;28;20044;-53
2022/05/19 15:04:38;;;;;;;3.17;0.93;;;;;;;;;;5040143;28;20084;-55
2022/05/19 15:07:08;;;;;;;1.92;1.08;;;;;;;;;;5036335;28;20489;-55
2022/05/19 15:09:36;;;;;;;5.40;1.30;;;;;;;;;;5047224;28;20432;-55
2022/05/19 15:12:02;;;;;;;2.13;1.02;;;;;;;;;;5040029;28;20037;-55
2022/05/19 15:14:28;;;;;;;1.35;0.80;;;;;;;;;;5039973;28;20033;-55
2022/05/19 15:16:54;;;;;;;4.40;1.20;;;;;;;;;;5046015;28;20021;-55
2022/05/19 15:19:21;;;;;;;2.20;1.00;;;;;;;;;;5044916;28;20033;-54
2022/05/19 15:21:48;;;;;;;3.90;0.93;;;;;;;;;;5042277;28;20032;-55